createdAt,value
2019-01-04T00:01:38.208Z,6.80
2019-01-04T00:04:12.251Z,6.50
2019-01-04T00:06:44.608Z,7.00
2019-01-04T00:09:12.752Z,6.70
2019-01-04T00:11:40.818Z,6.60
2019-01-04T00:14:08.820Z,5.70
2019-01-04T00:16:38.072Z,6.50
2019-01-04T00:19:06.091Z,6.60
2019-01-04T00:21:34.125Z,6.90
2019-01-04T00:24:04.053Z,6.50
2019-01-04T00:26:33.475Z,7.00
2019-01-04T00:29:01.705Z,6.90
2019-01-04T00:31:30.990Z,6.60
2019-01-04T00:34:01.222Z,6.50
2019-01-04T00:36:32.022Z,6.20
2019-01-04T00:39:02.362Z,6.60
2019-01-04T00:41:30.424Z,6.70
2019-01-04T00:43:58.422Z,6.70
2019-01-04T00:46:26.465Z,6.80
2019-01-04T00:48:57.298Z,6.90
2019-01-04T00:51:27.862Z,6.60
2019-01-04T00:54:04.487Z,6.80
2019-01-04T00:57:03.043Z,7.10
2019-01-04T01:00:48.908Z,6.60
2019-01-04T01:04:23.281Z,6.60
2019-01-04T01:08:01.423Z,6.20
2019-01-04T01:11:51.007Z,6.30
2019-01-04T01:14:57.976Z,6.30
2019-01-04T01:18:41.561Z,6.50
2019-01-04T01:21:55.223Z,6.60
2019-01-04T01:29:20.509Z,6.50
2019-01-04T01:32:39.935Z,6.70
2019-01-04T01:36:05.470Z,6.60
2019-01-04T01:39:39.583Z,6.50
2019-01-04T01:43:28.544Z,6.60
2019-01-04T01:46:49.564Z,6.40
2019-01-04T01:50:45.345Z,6.80
2019-01-04T01:53:16.344Z,6.90
2019-01-04T01:55:45.598Z,6.70
2019-01-04T01:58:13.668Z,7.10
2019-01-04T02:00:41.770Z,6.60
2019-01-04T02:03:10.015Z,7.10
2019-01-04T02:05:39.808Z,7.00
2019-01-04T02:08:12.515Z,6.80
2019-01-04T02:10:40.551Z,7.00
2019-01-04T02:13:08.875Z,7.10
2019-01-04T02:15:36.767Z,7.20
2019-01-04T02:18:07.024Z,7.00
2019-01-04T02:20:36.456Z,7.00
2019-01-04T02:23:04.392Z,7.20
2019-01-04T02:25:37.999Z,7.40
2019-01-04T02:28:26.639Z,7.00
2019-01-04T02:30:54.664Z,7.00
2019-01-04T02:33:25.184Z,7.30
2019-01-04T02:36:00.929Z,7.30
2019-01-04T02:38:29.148Z,6.90
2019-01-04T02:40:57.247Z,7.10
2019-01-04T02:43:25.671Z,7.30
2019-01-04T02:45:53.823Z,6.90
2019-01-04T02:48:21.724Z,7.10
2019-01-04T02:50:49.761Z,7.20
2019-01-04T02:53:17.736Z,7.50
2019-01-04T02:55:45.791Z,7.30
2019-01-04T02:58:13.919Z,7.30
2019-01-04T03:00:41.965Z,7.00
2019-01-04T03:03:10.023Z,7.00
2019-01-04T03:05:38.126Z,7.30
2019-01-04T03:08:06.150Z,7.60
2019-01-04T03:10:34.041Z,7.10
2019-01-04T03:13:03.843Z,6.90
2019-01-04T03:15:34.534Z,7.40
2019-01-04T03:18:04.915Z,7.50
2019-01-04T03:20:32.887Z,7.30
2019-01-04T03:23:01.018Z,7.30
2019-01-04T03:25:31.509Z,7.60
2019-01-04T03:28:00.935Z,7.10
2019-01-04T03:30:30.630Z,7.00
2019-01-04T03:32:58.629Z,7.40
2019-01-04T03:35:26.562Z,7.00
2019-01-04T03:37:55.604Z,7.10
2019-01-04T03:40:23.604Z,7.00
2019-01-04T03:42:54.394Z,7.00
2019-01-04T03:45:22.408Z,6.60
2019-01-04T03:47:50.465Z,6.70
2019-01-04T03:50:18.572Z,7.20
2019-01-04T03:52:46.506Z,7.10
2019-01-04T03:55:14.618Z,7.00
2019-01-04T03:57:42.778Z,6.90
2019-01-04T04:00:10.682Z,6.60
2019-01-04T04:02:38.728Z,6.70
2019-01-04T04:05:06.949Z,6.80
2019-01-04T04:07:34.808Z,6.60
2019-01-04T04:10:02.776Z,6.70
2019-01-04T04:12:30.832Z,6.70
2019-01-04T04:14:58.725Z,6.80
2019-01-04T04:17:26.612Z,6.60
2019-01-04T04:19:54.649Z,6.70
2019-01-04T04:22:22.533Z,6.60
2019-01-04T04:24:50.505Z,6.70
2019-01-04T04:27:18.538Z,6.60
2019-01-04T04:29:46.600Z,6.70
2019-01-04T04:32:15.551Z,6.80
2019-01-04T04:34:43.435Z,7.00
2019-01-04T04:37:12.457Z,6.80
2019-01-04T04:39:42.806Z,7.00
2019-01-04T04:42:13.477Z,6.90
2019-01-04T04:44:41.455Z,6.70
2019-01-04T04:47:12.516Z,7.00
2019-01-04T04:49:40.619Z,7.00
2019-01-04T04:52:11.348Z,7.10
2019-01-04T04:54:39.575Z,7.00
2019-01-04T04:57:07.704Z,7.20
2019-01-04T04:59:38.556Z,7.40
2019-01-04T05:02:06.468Z,7.20
2019-01-04T05:04:34.368Z,7.50
2019-01-04T05:07:05.032Z,7.30
2019-01-04T05:09:34.331Z,7.30
2019-01-04T05:12:05.311Z,7.70
2019-01-04T05:14:36.378Z,7.50
2019-01-04T05:17:06.178Z,7.60
2019-01-04T05:19:34.351Z,8.00
2019-01-04T05:22:03.442Z,7.30
2019-01-04T05:24:31.443Z,7.40
2019-01-04T05:26:59.523Z,7.30
2019-01-04T05:29:32.306Z,7.60
2019-01-04T05:32:00.440Z,7.40
2019-01-04T05:34:35.970Z,7.50
2019-01-04T05:37:04.017Z,7.20
2019-01-04T05:39:32.090Z,7.30
2019-01-04T05:42:03.331Z,7.40
2019-01-04T05:44:31.189Z,7.20
2019-01-04T05:47:00.455Z,7.00
2019-01-04T05:49:30.225Z,7.30
2019-01-04T05:51:58.160Z,7.10
2019-01-04T05:54:26.054Z,7.10
2019-01-04T05:56:54.182Z,7.30
2019-01-04T05:59:22.187Z,6.70
2019-01-04T06:01:50.126Z,7.00
2019-01-04T06:04:18.032Z,6.90
2019-01-04T06:06:45.918Z,6.80
2019-01-04T06:09:14.091Z,7.00
2019-01-04T06:11:42.076Z,7.00
2019-01-04T06:14:09.979Z,7.10
2019-01-04T06:16:37.969Z,7.10
2019-01-04T06:19:05.815Z,7.30
2019-01-04T06:21:33.885Z,7.10
2019-01-04T06:24:01.955Z,7.30
2019-01-04T06:26:29.809Z,7.20
2019-01-04T06:28:57.916Z,6.80
2019-01-04T06:31:25.748Z,7.10
2019-01-04T06:33:54.171Z,7.00
2019-01-04T06:36:22.641Z,6.90
2019-01-04T06:38:50.514Z,7.00
2019-01-04T06:41:18.542Z,6.90
2019-01-04T06:43:46.565Z,7.10
2019-01-04T06:46:14.459Z,7.00
2019-01-04T06:48:42.490Z,6.80
2019-01-04T06:51:10.363Z,6.80
2019-01-04T06:53:38.210Z,7.00
2019-01-04T06:56:07.198Z,7.00
2019-01-04T06:58:35.323Z,7.00
2019-01-04T07:01:03.475Z,7.10
2019-01-04T07:03:31.416Z,7.00
2019-01-04T07:05:59.387Z,7.30
2019-01-04T07:08:27.284Z,7.10
2019-01-04T07:10:55.281Z,7.30
2019-01-04T07:13:23.300Z,6.70
2019-01-04T07:15:51.321Z,6.80
2019-01-04T07:18:19.434Z,6.80
2019-01-04T07:20:47.395Z,6.90
2019-01-04T07:23:15.473Z,6.90
2019-01-04T07:25:43.334Z,7.50
2019-01-04T07:28:11.331Z,7.00
2019-01-04T07:30:39.259Z,7.00
2019-01-04T07:33:07.115Z,7.20
2019-01-04T07:35:34.970Z,7.30
2019-01-04T07:38:03.036Z,7.10
2019-01-04T07:40:31.048Z,7.60
2019-01-04T07:43:01.882Z,6.90
2019-01-04T07:45:29.940Z,7.00
2019-01-04T07:47:57.785Z,7.10
2019-01-04T07:50:25.643Z,7.10
2019-01-04T07:52:53.765Z,7.30
2019-01-04T07:55:21.605Z,7.30
2019-01-04T07:57:49.614Z,7.20
2019-01-04T08:00:17.764Z,7.00
2019-01-04T08:02:47.928Z,7.00
2019-01-04T08:05:18.942Z,7.40
2019-01-04T08:07:46.875Z,7.20
2019-01-04T08:10:14.778Z,7.40
2019-01-04T08:12:42.767Z,7.00
2019-01-04T08:15:10.908Z,7.10
2019-01-04T08:17:38.886Z,7.50
2019-01-04T08:20:07.804Z,7.30
2019-01-04T08:22:35.754Z,7.00
2019-01-04T08:25:04.316Z,7.20
2019-01-04T08:27:32.384Z,7.10
2019-01-04T08:30:00.203Z,7.30
2019-01-04T08:32:28.142Z,6.80
2019-01-04T08:34:56.288Z,7.20
2019-01-04T08:37:24.355Z,7.00
2019-01-04T08:39:52.428Z,6.80
2019-01-04T08:42:20.473Z,7.00
2019-01-04T08:44:48.509Z,7.00
2019-01-04T08:47:18.260Z,6.90
2019-01-04T08:49:46.240Z,6.70
2019-01-04T08:52:14.094Z,6.60
2019-01-04T08:54:42.124Z,7.20
2019-01-04T08:57:10.118Z,6.60
2019-01-04T08:59:38.138Z,7.10
2019-01-04T09:02:07.241Z,7.20
2019-01-04T09:04:35.213Z,7.10
2019-01-04T09:07:03.175Z,7.20
2019-01-04T09:09:31.231Z,7.00
2019-01-04T09:11:59.201Z,7.20
2019-01-04T09:14:27.218Z,6.90
2019-01-04T09:16:55.213Z,7.30
2019-01-04T09:19:23.077Z,6.90
2019-01-04T09:21:51.093Z,6.90
2019-01-04T09:24:18.929Z,7.00
2019-01-04T09:26:47.584Z,6.50
2019-01-04T09:29:18.661Z,6.60
2019-01-04T09:31:46.862Z,7.10
2019-01-04T09:34:14.782Z,7.10
2019-01-04T09:36:42.803Z,7.10
2019-01-04T09:39:10.725Z,6.60
2019-01-04T09:42:17.267Z,6.70
2019-01-04T09:44:45.778Z,6.70
2019-01-04T09:47:13.666Z,6.70
2019-01-04T09:49:41.657Z,6.90
2019-01-04T09:52:09.785Z,6.90
2019-01-04T09:54:37.740Z,6.70
2019-01-04T09:57:05.686Z,6.70
2019-01-04T09:59:33.510Z,6.90
2019-01-04T10:02:01.442Z,6.60
2019-01-04T10:04:29.443Z,6.90
2019-01-04T10:06:57.432Z,6.90
2019-01-04T10:09:25.586Z,6.70
2019-01-04T10:11:56.275Z,6.90
2019-01-04T10:14:24.236Z,7.10
2019-01-04T10:16:52.253Z,6.80
2019-01-04T10:19:20.155Z,7.30
2019-01-04T10:21:47.976Z,7.00
2019-01-04T10:24:15.996Z,7.10
2019-01-04T10:26:43.925Z,7.10
2019-01-04T10:29:14.074Z,7.10
2019-01-04T10:31:42.190Z,7.00
2019-01-04T10:34:10.049Z,7.00
2019-01-04T10:36:38.107Z,6.80
2019-01-04T10:39:07.780Z,6.70
2019-01-04T10:41:35.719Z,6.90
2019-01-04T10:44:05.921Z,6.60
2019-01-04T10:46:33.975Z,6.90
2019-01-04T10:49:01.823Z,6.90
2019-01-04T10:51:29.847Z,6.90
2019-01-04T10:53:57.906Z,6.90
2019-01-04T10:56:25.729Z,6.80
2019-01-04T10:58:54.183Z,7.00
2019-01-04T11:01:22.303Z,7.00
2019-01-04T11:03:50.177Z,7.20
2019-01-04T11:06:18.176Z,6.90
2019-01-04T11:08:46.125Z,6.90
2019-01-04T11:11:16.383Z,6.50
2019-01-04T11:13:44.262Z,6.30
2019-01-04T11:16:12.165Z,6.50
2019-01-04T11:18:40.233Z,6.70
2019-01-04T11:21:11.557Z,6.80
2019-01-04T11:24:32.463Z,6.70
2019-01-04T11:27:11.694Z,6.60
2019-01-04T11:30:33.969Z,6.60
2019-01-04T11:34:07.201Z,6.00
2019-01-04T11:37:16.642Z,6.50
2019-01-04T11:41:12.730Z,6.90
2019-01-04T11:44:32.952Z,6.70
2019-01-04T11:47:39.922Z,6.60
2019-01-04T11:51:18.107Z,6.80
2019-01-04T11:53:45.980Z,6.30
2019-01-04T11:56:13.903Z,6.40
2019-01-04T11:58:41.853Z,6.70
2019-01-04T12:01:09.721Z,6.40
2019-01-04T12:03:37.863Z,6.60
2019-01-04T12:06:05.890Z,6.40
2019-01-04T12:08:33.823Z,6.80
2019-01-04T12:11:01.823Z,6.80
2019-01-04T12:13:29.868Z,6.70
2019-01-04T12:15:57.774Z,6.50
2019-01-04T12:18:25.802Z,6.40
2019-01-04T12:20:53.806Z,6.50
2019-01-04T12:23:21.685Z,6.50
2019-01-04T12:25:49.761Z,6.50
2019-01-04T12:28:17.723Z,6.20
2019-01-04T12:30:45.756Z,6.20
2019-01-04T12:33:13.798Z,6.40
2019-01-04T12:35:41.687Z,6.80
2019-01-04T12:38:09.504Z,6.40
2019-01-04T12:40:37.506Z,6.50
2019-01-04T12:43:05.556Z,6.60
2019-01-04T12:45:33.526Z,6.20
2019-01-04T12:48:01.458Z,6.80
2019-01-04T12:50:29.422Z,6.40
2019-01-04T12:52:57.364Z,6.20
2019-01-04T12:55:25.254Z,6.40
2019-01-04T12:57:53.271Z,6.20
2019-01-04T13:00:21.196Z,6.30
2019-01-04T13:02:49.053Z,6.30
2019-01-04T13:05:17.078Z,6.20
2019-01-04T13:07:45.065Z,6.60
2019-01-04T13:10:15.094Z,6.30
2019-01-04T13:12:43.103Z,6.20
2019-01-04T13:15:11.529Z,6.40
2019-01-04T13:17:41.181Z,6.40
2019-01-04T13:20:09.503Z,6.60
2019-01-04T13:22:37.506Z,6.70
2019-01-04T13:25:06.164Z,6.60
2019-01-04T13:27:35.248Z,6.90
2019-01-04T13:30:06.523Z,6.10
2019-01-04T13:32:34.690Z,6.20
2019-01-04T13:35:09.190Z,6.10
2019-01-04T13:37:46.166Z,6.30
2019-01-04T13:40:19.268Z,6.50
2019-01-04T13:42:47.313Z,6.70
2019-01-04T13:45:25.506Z,6.10
2019-01-04T13:47:55.651Z,6.30
2019-01-04T13:50:30.473Z,6.30
2019-01-04T13:53:09.395Z,6.40
2019-01-04T13:55:41.858Z,6.40
2019-01-04T13:58:14.198Z,6.80
2019-01-04T14:00:43.335Z,6.40
2019-01-04T14:03:12.457Z,6.20
2019-01-04T14:05:48.173Z,6.40
2019-01-04T14:08:19.553Z,6.40
2019-01-04T14:10:47.459Z,6.40
2019-01-04T14:13:39.894Z,6.50
2019-01-04T14:16:16.226Z,6.30
2019-01-04T14:18:46.695Z,6.40
2019-01-04T14:21:14.742Z,6.80
2019-01-04T14:23:45.913Z,6.50
2019-01-04T14:26:18.195Z,6.50
2019-01-04T14:28:50.626Z,6.60
2019-01-04T14:31:19.311Z,6.70
2019-01-04T14:33:50.442Z,6.20
2019-01-04T14:36:20.549Z,6.60
2019-01-04T14:38:52.991Z,6.40
2019-01-04T14:41:24.417Z,6.50
2019-01-04T14:43:56.293Z,6.20
2019-01-04T14:46:29.414Z,6.40
2019-01-04T14:49:03.018Z,6.30
2019-01-04T14:51:40.454Z,6.20
2019-01-04T14:54:10.941Z,6.30
2019-01-04T14:56:45.833Z,6.40
2019-01-04T14:59:26.640Z,6.20
2019-01-04T15:01:58.109Z,6.30
2019-01-04T15:04:26.379Z,6.50
2019-01-04T15:06:58.295Z,6.50
2019-01-04T15:09:31.372Z,6.20
2019-01-04T15:11:59.507Z,6.20
2019-01-04T15:14:31.995Z,6.20
2019-01-04T15:17:06.759Z,6.40
2019-01-04T15:19:37.785Z,5.90
2019-01-04T15:22:08.718Z,6.10
2019-01-04T15:24:36.546Z,6.10
2019-01-04T15:27:12.861Z,6.10
2019-01-04T15:29:40.965Z,6.10
2019-01-04T15:32:13.573Z,6.20
2019-01-04T15:34:44.723Z,5.80
2019-01-04T15:37:13.953Z,5.80
2019-01-04T15:39:56.112Z,6.00
2019-01-04T15:42:24.003Z,6.10
2019-01-04T15:45:06.844Z,6.50
2019-01-04T15:47:37.471Z,6.00
2019-01-04T15:50:09.411Z,6.30
2019-01-04T15:52:38.425Z,6.00
2019-01-04T15:55:30.872Z,6.10
2019-01-04T15:58:01.829Z,5.80
2019-01-04T16:00:37.252Z,6.00
2019-01-04T16:03:10.525Z,6.00
2019-01-04T16:05:53.903Z,6.10
2019-01-04T16:08:24.761Z,6.10
2019-01-04T16:10:53.949Z,5.90
2019-01-04T16:13:31.096Z,5.90
2019-01-04T16:16:04.828Z,6.40
2019-01-04T16:18:32.817Z,6.00
2019-01-04T16:21:06.306Z,6.00
2019-01-04T16:23:37.519Z,6.00
2019-01-04T16:26:32.210Z,6.10
2019-01-04T16:29:03.162Z,6.50
2019-01-04T16:31:32.873Z,6.40
2019-01-04T16:34:05.227Z,6.10
2019-01-04T16:36:37.755Z,6.40
2019-01-04T16:39:21.806Z,6.20
2019-01-04T16:41:51.995Z,7.00
2019-01-04T16:44:32.472Z,6.10
2019-01-04T16:47:03.518Z,6.30
2019-01-04T16:49:37.197Z,6.80
2019-01-04T16:52:05.670Z,6.60
2019-01-04T16:54:34.445Z,6.30
2019-01-04T16:57:06.053Z,6.70
2019-01-04T16:59:33.967Z,6.60
2019-01-04T17:02:04.946Z,6.30
2019-01-04T17:04:43.119Z,6.50
2019-01-04T17:07:11.104Z,6.60
2019-01-04T17:09:57.663Z,6.40
2019-01-04T17:12:29.168Z,6.20
2019-01-04T17:14:57.636Z,6.60
2019-01-04T17:17:25.802Z,6.20
2019-01-04T17:19:57.695Z,6.30
2019-01-04T17:22:25.680Z,6.30
2019-01-04T17:24:56.476Z,6.30
2019-01-04T17:27:24.698Z,6.40
2019-01-04T17:29:52.619Z,6.40
2019-01-04T17:32:20.738Z,6.30
2019-01-04T17:34:48.663Z,6.30
2019-01-04T17:37:16.649Z,6.20
2019-01-04T17:39:44.664Z,6.20
2019-01-04T17:42:12.676Z,6.50
2019-01-04T17:44:40.563Z,6.40
2019-01-04T17:47:08.441Z,6.20
2019-01-04T17:49:36.448Z,6.20
2019-01-04T17:52:04.461Z,6.20
2019-01-04T17:54:32.328Z,5.60
2019-01-04T17:57:00.455Z,6.40
2019-01-04T17:59:28.319Z,6.30
2019-01-04T18:01:56.140Z,6.00
2019-01-04T18:04:24.114Z,6.30
2019-01-04T18:06:52.002Z,6.60
2019-01-04T18:09:22.502Z,6.60
2019-01-04T18:11:50.674Z,6.60
2019-01-04T18:14:18.720Z,6.80
2019-01-04T18:16:46.871Z,6.90
2019-01-04T18:19:14.787Z,7.10
2019-01-04T18:21:42.647Z,7.00
2019-01-04T18:24:10.759Z,7.10
2019-01-04T18:26:38.656Z,7.30
2019-01-04T18:29:06.840Z,7.30
2019-01-04T18:31:34.979Z,7.10
2019-01-04T18:34:02.824Z,7.30
2019-01-04T18:36:30.834Z,7.50
2019-01-04T18:38:58.945Z,7.60
2019-01-04T18:41:27.045Z,7.40
2019-01-04T18:43:55.008Z,7.50
2019-01-04T18:46:22.834Z,7.40
2019-01-04T18:48:51.206Z,7.30
2019-01-04T18:51:19.511Z,7.00
2019-01-04T18:53:47.471Z,7.30
2019-01-04T18:56:15.400Z,7.50
2019-01-04T18:58:43.192Z,7.30
2019-01-04T19:01:13.748Z,7.50
2019-01-04T19:03:41.789Z,8.00
2019-01-04T19:06:09.729Z,7.60
2019-01-04T19:08:37.537Z,8.00
2019-01-04T19:11:05.684Z,7.60
2019-01-04T19:13:34.106Z,7.70
2019-01-04T19:16:02.069Z,7.70
2019-01-04T19:18:30.008Z,7.90
2019-01-04T19:20:58.093Z,8.00
2019-01-04T19:23:26.104Z,7.40
2019-01-04T19:25:54.059Z,7.50
2019-01-04T19:28:22.080Z,7.40
2019-01-04T19:30:50.099Z,7.90
2019-01-04T19:33:21.939Z,7.60
2019-01-04T19:35:49.843Z,7.50
2019-01-04T19:38:17.762Z,7.40
2019-01-04T19:40:45.575Z,7.60
2019-01-04T19:43:13.325Z,7.70
2019-01-04T19:45:41.211Z,7.90
2019-01-04T19:48:10.282Z,7.70
2019-01-04T19:50:38.115Z,7.80
2019-01-04T19:53:06.172Z,7.70
2019-01-04T19:55:34.042Z,7.90
2019-01-04T19:58:02.040Z,8.20
2019-01-04T20:00:29.893Z,8.10
2019-01-04T20:02:57.805Z,8.20
2019-01-04T20:06:05.066Z,7.80
2019-01-04T20:09:53.343Z,7.70
2019-01-04T20:13:43.187Z,8.40
2019-01-04T20:16:58.513Z,8.10
2019-01-04T20:20:02.041Z,8.40
2019-01-04T20:22:58.788Z,7.90
2019-01-04T20:25:45.100Z,7.80
2019-01-04T20:28:32.307Z,8.30
2019-01-04T20:31:20.059Z,8.40
2019-01-04T20:34:06.655Z,8.30
2019-01-04T20:36:52.940Z,7.70
2019-01-04T20:39:46.716Z,7.90
2019-01-04T20:42:36.851Z,8.30
2019-01-04T20:45:27.455Z,7.90
2019-01-04T20:48:20.811Z,8.00
2019-01-04T20:51:12.336Z,7.70
2019-01-04T20:53:54.421Z,8.00
2019-01-04T20:56:45.223Z,7.70
2019-01-04T20:59:31.216Z,7.80
2019-01-04T21:02:17.352Z,7.90
2019-01-04T21:05:03.673Z,7.70
2019-01-04T21:07:49.979Z,7.70
2019-01-04T21:10:45.518Z,7.80
2019-01-04T21:13:35.888Z,7.80
2019-01-04T21:16:36.066Z,8.20
2019-01-04T21:19:22.712Z,8.20
2019-01-04T21:22:02.485Z,8.00
2019-01-04T21:24:56.071Z,8.30
2019-01-04T21:27:42.511Z,8.10
2019-01-04T21:30:48.143Z,8.40
2019-01-04T21:33:34.425Z,8.50
2019-01-04T21:36:25.028Z,7.80
2019-01-04T21:39:11.452Z,8.10
2019-01-04T21:41:57.623Z,8.20
2019-01-04T21:45:00.098Z,8.10
2019-01-04T21:47:51.837Z,8.40
2019-01-04T21:50:38.527Z,8.30
2019-01-04T21:53:24.507Z,8.40
2019-01-04T21:56:20.754Z,8.10
2019-01-04T21:59:20.938Z,8.20
2019-01-04T22:02:07.029Z,8.30
2019-01-04T22:05:12.635Z,8.60
2019-01-04T22:08:00.177Z,8.20
2019-01-04T22:10:46.306Z,7.80
2019-01-04T22:13:33.806Z,7.90
2019-01-04T22:16:23.179Z,8.30
2019-01-04T22:19:12.102Z,8.20
2019-01-04T22:22:08.471Z,8.30
2019-01-04T22:24:51.409Z,7.90
2019-01-04T22:27:37.674Z,8.30
2019-01-04T22:30:25.756Z,8.20
2019-01-04T22:33:11.825Z,8.20
2019-01-04T22:36:12.627Z,8.20
2019-01-04T22:38:58.852Z,8.50
2019-01-04T22:42:01.777Z,8.10
2019-01-04T22:45:07.724Z,8.50
2019-01-04T22:47:47.275Z,8.40
2019-01-04T22:50:35.078Z,7.80
2019-01-04T22:53:25.538Z,8.20
2019-01-04T22:56:26.517Z,8.20
2019-01-04T22:59:14.027Z,8.20
2019-01-04T23:02:11.069Z,8.10
2019-01-04T23:05:14.004Z,8.10
2019-01-04T23:08:00.568Z,7.80
2019-01-04T23:10:46.827Z,8.10
2019-01-04T23:13:28.333Z,8.30
2019-01-04T23:16:18.977Z,8.20
2019-01-04T23:19:08.011Z,8.30
2019-01-04T23:22:35.545Z,7.80
2019-01-04T23:25:22.345Z,8.10
2019-01-04T23:28:09.313Z,7.80
2019-01-04T23:31:03.029Z,8.00
2019-01-04T23:33:49.379Z,8.00
2019-01-04T23:36:50.652Z,7.80
2019-01-04T23:39:41.042Z,8.00
2019-01-04T23:42:37.277Z,7.80
2019-01-04T23:45:43.092Z,8.10
2019-01-04T23:48:36.666Z,8.20
2019-01-04T23:51:33.622Z,8.10
2019-01-04T23:54:32.940Z,7.90
2019-01-04T23:57:21.150Z,8.10
